Time;durP1;ratioP1;P1;durP2;ratioP2;P2;SDS_P1;SDS_P2;PMS_P1;PMS_P2;Temp;Humidity;BMP_temperature;BMP_pressure;BME280_temperature;BME280_humidity;BME280_pressure;Samples;Min_cycle;Max_cycle;Signal;HPM_P1;HPM_P2
2024/01/25 00:00:28;;;;;;;17.55;3.15;;;;;;;;;;6011767;23;20172;-91
2024/01/25 00:03:33;;;;;;;15.60;2.72;;;;;;;;;;6009016;23;20175;-92
2024/01/25 00:06:40;;;;;;;11.57;2.60;;;;;;;;;;6011179;23;20225;-89
2024/01/25 00:09:46;;;;;;;17.98;2.88;;;;;;;;;;6008848;23;20175;-90
2024/01/25 00:12:51;;;;;;;13.93;2.75;;;;;;;;;;6026549;23;20174;-91
2024/01/25 00:15:57;;;;;;;18.90;3.00;;;;;;;;;;6023895;23;20196;-92
2024/01/25 00:19:02;;;;;;;19.63;2.88;;;;;;;;;;6005971;23;20531;-92
2024/01/25 00:22:09;;;;;;;18.30;2.90;;;;;;;;;;6038447;23;20559;-91
2024/01/25 00:25:14;;;;;;;13.95;2.45;;;;;;;;;;6006514;23;20226;-90
2024/01/25 00:28:19;;;;;;;17.00;2.47;;;;;;;;;;6009844;23;20171;-91
2024/01/25 00:31:24;;;;;;;24.23;2.92;;;;;;;;;;6008941;23;20199;-90
2024/01/25 00:34:30;;;;;;;23.73;3.22;;;;;;;;;;6009710;23;20172;-90
2024/01/25 00:37:38;;;;;;;16.08;3.22;;;;;;;;;;6011893;23;20172;-91
2024/01/25 00:40:43;;;;;;;23.63;3.33;;;;;;;;;;6008886;23;20204;-92
2024/01/25 00:43:49;;;;;;;25.38;4.55;;;;;;;;;;6008980;23;20208;-90
2024/01/25 00:46:54;;;;;;;17.70;3.13;;;;;;;;;;6014325;23;20175;-93
2024/01/25 00:50:00;;;;;;;26.25;3.67;;;;;;;;;;6009808;23;20171;-91
2024/01/25 00:53:07;;;;;;;19.83;2.88;;;;;;;;;;6024295;23;20616;-93
2024/01/25 00:56:13;;;;;;;22.25;3.20;;;;;;;;;;6008909;23;20156;-93
2024/01/25 00:59:19;;;;;;;18.50;3.58;;;;;;;;;;6010710;23;20193;-92
2024/01/25 01:02:26;;;;;;;15.93;3.42;;;;;;;;;;6010574;23;20551;-92
2024/01/25 01:05:31;;;;;;;13.63;2.65;;;;;;;;;;6009513;23;20244;-92
2024/01/25 01:08:38;;;;;;;19.20;2.55;;;;;;;;;;6013859;23;20168;-92
2024/01/25 01:11:56;;;;;;;19.05;2.58;;;;;;;;;;6009809;23;20191;-92
2024/01/25 01:15:02;;;;;;;16.90;2.40;;;;;;;;;;6010592;23;20206;-92
2024/01/25 01:18:07;;;;;;;14.10;2.90;;;;;;;;;;6009818;23;20652;-91
2024/01/25 01:21:13;;;;;;;18.30;3.10;;;;;;;;;;6010689;23;20175;-91
2024/01/25 01:24:20;;;;;;;24.13;2.83;;;;;;;;;;6011275;23;20175;-91
2024/01/25 01:27:25;;;;;;;15.80;2.60;;;;;;;;;;6010895;23;20521;-92
2024/01/25 01:30:31;;;;;;;19.10;2.40;;;;;;;;;;6013477;23;20167;-90
2024/01/25 01:33:37;;;;;;;17.70;2.72;;;;;;;;;;6009020;23;20180;-90
2024/01/25 01:36:42;;;;;;;18.80;2.95;;;;;;;;;;6010388;23;20176;-92
2024/01/25 01:39:52;;;;;;;14.10;2.78;;;;;;;;;;6011803;23;20172;-92
2024/01/25 01:43:01;;;;;;;22.27;2.33;;;;;;;;;;6012798;23;20226;-89
2024/01/25 01:46:11;;;;;;;24.92;3.55;;;;;;;;;;6012192;23;20622;-91
2024/01/25 01:49:18;;;;;;;16.20;3.20;;;;;;;;;;6010903;23;20172;-91
2024/01/25 01:52:23;;;;;;;15.60;2.50;;;;;;;;;;6011764;23;20183;-90
2024/01/25 01:55:30;;;;;;;16.20;2.28;;;;;;;;;;6011224;23;20151;-91
2024/01/25 01:58:36;;;;;;;16.58;3.00;;;;;;;;;;6028121;23;20213;-91
2024/01/25 02:01:42;;;;;;;22.00;3.05;;;;;;;;;;6010751;23;20625;-91
2024/01/25 02:04:47;;;;;;;19.42;2.63;;;;;;;;;;6008765;23;20171;-90
2024/01/25 02:07:54;;;;;;;19.00;2.80;;;;;;;;;;6011069;23;20155;-89
2024/01/25 02:14:38;;;;;;;12.40;2.50;;;;;;;;;;6031216;23;20184;-89
2024/01/25 02:17:43;;;;;;;15.85;2.58;;;;;;;;;;6008880;23;20213;-92
2024/01/25 02:20:50;;;;;;;16.55;3.08;;;;;;;;;;6009716;23;20229;-91
2024/01/25 02:23:56;;;;;;;17.77;2.40;;;;;;;;;;6010445;23;20230;-91
2024/01/25 02:27:04;;;;;;;20.90;2.90;;;;;;;;;;6011537;23;20176;-90
2024/01/25 02:30:10;;;;;;;17.75;3.28;;;;;;;;;;6010583;23;20175;-91
2024/01/25 02:33:15;;;;;;;24.88;3.65;;;;;;;;;;6010864;23;20199;-92
2024/01/25 02:36:23;;;;;;;17.80;2.85;;;;;;;;;;6012380;23;20177;-92
2024/01/25 02:39:30;;;;;;;19.70;2.97;;;;;;;;;;6013288;23;20641;-90
2024/01/25 02:42:36;;;;;;;18.67;3.40;;;;;;;;;;6011116;23;20175;-91
2024/01/25 02:45:42;;;;;;;13.77;2.67;;;;;;;;;;6012289;23;20189;-93
2024/01/25 02:48:47;;;;;;;22.50;2.75;;;;;;;;;;6010680;23;20172;-92
2024/01/25 02:51:52;;;;;;;13.40;2.67;;;;;;;;;;6011689;23;20176;-92
2024/01/25 02:54:59;;;;;;;22.38;3.20;;;;;;;;;;6012341;23;20233;-93
2024/01/25 02:58:04;;;;;;;14.88;2.83;;;;;;;;;;6013190;23;20176;-91
2024/01/25 03:01:09;;;;;;;27.02;3.13;;;;;;;;;;6013309;23;20244;-89
2024/01/25 03:04:16;;;;;;;21.80;3.42;;;;;;;;;;6011785;23;20213;-90
2024/01/25 03:07:21;;;;;;;18.85;2.97;;;;;;;;;;6010516;23;20164;-92
2024/01/25 03:10:28;;;;;;;17.70;2.85;;;;;;;;;;6010713;23;20159;-91
2024/01/25 03:13:34;;;;;;;20.15;2.83;;;;;;;;;;6010156;23;20204;-91
2024/01/25 03:16:39;;;;;;;20.85;3.55;;;;;;;;;;6010416;23;20246;-92
2024/01/25 03:19:44;;;;;;;18.45;2.60;;;;;;;;;;6010647;23;20176;-90
2024/01/25 03:22:49;;;;;;;20.13;3.20;;;;;;;;;;6027865;23;20151;-91
2024/01/25 03:25:57;;;;;;;23.83;3.72;;;;;;;;;;6027053;23;20152;-90
2024/01/25 03:29:02;;;;;;;19.15;3.17;;;;;;;;;;6011913;23;20175;-90
2024/01/25 03:32:07;;;;;;;30.67;3.42;;;;;;;;;;6011471;23;20199;-91
2024/01/25 03:35:13;;;;;;;19.63;3.17;;;;;;;;;;6008795;23;20253;-89
2024/01/25 03:38:19;;;;;;;24.40;3.88;;;;;;;;;;6008626;23;20240;-89
2024/01/25 03:41:30;;;;;;;25.08;3.53;;;;;;;;;;6007518;23;20280;-91
2024/01/25 03:44:35;;;;;;;16.40;3.90;;;;;;;;;;6009986;23;20181;-92
2024/01/25 03:47:41;;;;;;;23.13;3.72;;;;;;;;;;6011386;23;20176;-91
2024/01/25 03:50:46;;;;;;;19.95;3.63;;;;;;;;;;6011011;23;20204;-91
2024/01/25 03:53:52;;;;;;;23.67;3.85;;;;;;;;;;6010592;23;20234;-92
2024/01/25 03:56:59;;;;;;;21.50;3.53;;;;;;;;;;6011402;23;20221;-90
2024/01/25 04:00:05;;;;;;;24.23;3.92;;;;;;;;;;6011437;23;20257;-91
2024/01/25 04:03:11;;;;;;;29.52;4.40;;;;;;;;;;6009731;23;20176;-89
2024/01/25 04:06:17;;;;;;;22.45;4.00;;;;;;;;;;6010451;23;20176;-90
2024/01/25 04:09:22;;;;;;;18.50;3.65;;;;;;;;;;6010177;23;20198;-91
2024/01/25 04:12:31;;;;;;;25.77;4.20;;;;;;;;;;6009681;23;20196;-91
2024/01/25 04:15:36;;;;;;;21.85;4.43;;;;;;;;;;6010980;23;20296;-91
2024/01/25 04:18:42;;;;;;;22.13;4.25;;;;;;;;;;6010361;23;20171;-92
2024/01/25 04:21:48;;;;;;;25.77;4.20;;;;;;;;;;6009487;23;20164;-93
2024/01/25 04:24:53;;;;;;;18.58;3.05;;;;;;;;;;6008603;23;20168;-92
2024/01/25 04:28:00;;;;;;;16.45;2.97;;;;;;;;;;6023673;23;20179;-91
2024/01/25 04:31:05;;;;;;;23.00;2.97;;;;;;;;;;6007924;23;20216;-93
2024/01/25 04:34:10;;;;;;;24.83;4.45;;;;;;;;;;6023933;23;20195;-92
2024/01/25 04:37:15;;;;;;;26.25;3.10;;;;;;;;;;6010642;23;20165;-91
2024/01/25 04:40:20;;;;;;;29.17;3.97;;;;;;;;;;6012755;23;20236;-95
2024/01/25 04:43:28;;;;;;;21.48;3.30;;;;;;;;;;6009826;23;20285;-91
2024/01/25 04:46:37;;;;;;;24.30;3.75;;;;;;;;;;6010888;23;20156;-90
2024/01/25 04:49:43;;;;;;;20.10;3.83;;;;;;;;;;6011026;23;20172;-92
2024/01/25 04:52:49;;;;;;;29.95;3.67;;;;;;;;;;6012917;23;20220;-91
2024/01/25 04:55:56;;;;;;;22.40;3.83;;;;;;;;;;6012448;23;20197;-91
2024/01/25 04:59:03;;;;;;;16.70;3.30;;;;;;;;;;6008599;23;20176;-91
2024/01/25 05:02:09;;;;;;;25.98;4.20;;;;;;;;;;6010149;23;20167;-90
2024/01/25 05:05:14;;;;;;;22.60;3.10;;;;;;;;;;6009570;23;20172;-91
2024/01/25 05:08:23;;;;;;;25.15;3.38;;;;;;;;;;6012116;23;20172;-90
2024/01/25 05:11:28;;;;;;;32.38;5.18;;;;;;;;;;6013327;23;20175;-92
2024/01/25 05:14:35;;;;;;;23.70;3.60;;;;;;;;;;6012349;23;20179;-91
2024/01/25 05:17:40;;;;;;;26.33;4.20;;;;;;;;;;6011977;23;20191;-91
2024/01/25 05:20:46;;;;;;;27.25;4.60;;;;;;;;;;6012333;23;20175;-90
2024/01/25 05:23:51;;;;;;;23.52;3.47;;;;;;;;;;6008941;23;20220;-91
2024/01/25 05:26:56;;;;;;;17.23;3.10;;;;;;;;;;6011952;23;20171;-92
2024/01/25 05:30:10;;;;;;;20.52;3.17;;;;;;;;;;6029061;23;20160;-92
2024/01/25 05:33:15;;;;;;;25.02;3.13;;;;;;;;;;6012148;23;20273;-92
2024/01/25 05:36:22;;;;;;;21.77;3.65;;;;;;;;;;6028396;23;20202;-92
2024/01/25 05:39:28;;;;;;;17.67;3.17;;;;;;;;;;6012405;23;20498;-91
2024/01/25 05:42:34;;;;;;;28.20;2.95;;;;;;;;;;6014154;23;20213;-91
2024/01/25 05:45:42;;;;;;;22.27;2.75;;;;;;;;;;6014424;23;20167;-92
2024/01/25 05:48:48;;;;;;;19.55;2.90;;;;;;;;;;6013596;23;20169;-91
2024/01/25 05:51:54;;;;;;;25.85;3.03;;;;;;;;;;6018128;23;20228;-91
2024/01/25 05:55:03;;;;;;;17.67;3.40;;;;;;;;;;6030408;23;20218;-90
2024/01/25 06:01:08;;;;;;;24.95;3.08;;;;;;;;;;6052983;23;20222;-91
2024/01/25 06:04:16;;;;;;;20.38;3.05;;;;;;;;;;6086841;23;20171;-90
2024/01/25 06:07:22;;;;;;;23.23;3.28;;;;;;;;;;6087437;23;20163;-91
2024/01/25 06:10:27;;;;;;;27.52;3.20;;;;;;;;;;6086473;23;20187;-91
2024/01/25 06:13:32;;;;;;;13.75;2.80;;;;;;;;;;6085346;23;20523;-92
2024/01/25 06:16:39;;;;;;;24.08;3.08;;;;;;;;;;6086418;23;20187;-93
2024/01/25 06:19:45;;;;;;;18.25;2.70;;;;;;;;;;6083652;23;20245;-90
2024/01/25 06:22:52;;;;;;;22.67;3.17;;;;;;;;;;6086746;23;20207;-92
2024/01/25 06:25:58;;;;;;;24.58;3.10;;;;;;;;;;6092714;23;20201;-91
2024/01/25 06:29:04;;;;;;;27.15;2.95;;;;;;;;;;6087532;23;20166;-90
2024/01/25 06:32:11;;;;;;;24.52;3.28;;;;;;;;;;6086037;23;20169;-92
2024/01/25 06:35:17;;;;;;;19.98;2.90;;;;;;;;;;6088964;23;20233;-89
2024/01/25 06:38:22;;;;;;;25.70;3.90;;;;;;;;;;6089125;23;20195;-91
2024/01/25 06:41:29;;;;;;;31.90;5.72;;;;;;;;;;6085395;23;20232;-92
2024/01/25 06:44:35;;;;;;;16.77;2.50;;;;;;;;;;6085383;23;20178;-91
2024/01/25 06:47:46;;;;;;;18.15;3.58;;;;;;;;;;6085852;23;20166;-93
2024/01/25 06:50:52;;;;;;;23.77;5.38;;;;;;;;;;6085188;23;20236;-91
2024/01/25 06:53:57;;;;;;;26.52;4.07;;;;;;;;;;6086776;23;20190;-92
2024/01/25 06:57:04;;;;;;;20.58;3.17;;;;;;;;;;6088317;23;20247;-90
2024/01/25 07:00:12;;;;;;;31.20;4.15;;;;;;;;;;6087943;23;20162;-90
2024/01/25 07:03:32;;;;;;;17.52;3.38;;;;;;;;;;6091584;23;20166;-92
2024/01/25 07:06:38;;;;;;;16.92;3.08;;;;;;;;;;6090965;23;20155;-91
2024/01/25 07:13:03;;;;;;;32.42;4.07;;;;;;;;;;6087472;23;20194;-92
2024/01/25 07:16:09;;;;;;;29.92;3.35;;;;;;;;;;6088039;23;20163;-93
2024/01/25 07:19:15;;;;;;;24.17;3.83;;;;;;;;;;6088218;23;20159;-93
2024/01/25 07:22:22;;;;;;;24.15;3.05;;;;;;;;;;6088897;23;20223;-92
2024/01/25 07:25:27;;;;;;;30.25;4.63;;;;;;;;;;6088092;23;20179;-92
2024/01/25 07:28:33;;;;;;;29.38;3.40;;;;;;;;;;6087188;23;20170;-91
2024/01/25 07:31:40;;;;;;;45.97;14.00;;;;;;;;;;6089978;23;20188;-91
2024/01/25 07:34:53;;;;;;;35.10;6.22;;;;;;;;;;6092171;23;20183;-90
2024/01/25 07:38:03;;;;;;;23.70;3.60;;;;;;;;;;6091038;23;20182;-90
2024/01/25 07:41:08;;;;;;;31.13;3.60;;;;;;;;;;6088308;23;20166;-91
2024/01/25 07:44:16;;;;;;;25.33;3.28;;;;;;;;;;6087469;23;20174;-91
2024/01/25 07:47:22;;;;;;;20.40;3.75;;;;;;;;;;6087022;23;20174;-92
2024/01/25 07:50:29;;;;;;;23.60;3.80;;;;;;;;;;6087716;23;20166;-91
2024/01/25 07:53:36;;;;;;;21.33;3.28;;;;;;;;;;6088772;23;20198;-90
2024/01/25 07:56:42;;;;;;;22.67;3.45;;;;;;;;;;6089613;23;20166;-91
2024/01/25 07:59:47;;;;;;;22.88;4.35;;;;;;;;;;6088601;23;20251;-91
2024/01/25 08:02:53;;;;;;;23.70;3.80;;;;;;;;;;6088064;23;20158;-92
2024/01/25 08:06:02;;;;;;;20.02;3.65;;;;;;;;;;6088478;23;20227;-91
2024/01/25 08:09:09;;;;;;;27.67;3.45;;;;;;;;;;6088596;23;20163;-92
2024/01/25 08:12:15;;;;;;;36.25;4.47;;;;;;;;;;6086041;23;20174;-92
2024/01/25 08:15:23;;;;;;;20.48;3.35;;;;;;;;;;6085694;23;20178;-90
2024/01/25 08:18:29;;;;;;;28.77;3.67;;;;;;;;;;6086101;23;20223;-92
2024/01/25 08:21:36;;;;;;;22.58;3.20;;;;;;;;;;6087306;23;20154;-91
2024/01/25 08:24:42;;;;;;;28.73;3.65;;;;;;;;;;6088584;23;20166;-90
2024/01/25 08:27:48;;;;;;;27.52;3.45;;;;;;;;;;6086288;23;20243;-93
2024/01/25 08:30:54;;;;;;;18.25;3.08;;;;;;;;;;6086138;23;20178;-92
2024/01/25 08:34:00;;;;;;;36.38;4.75;;;;;;;;;;6086983;23;20226;-91
2024/01/25 08:37:07;;;;;;;26.35;4.22;;;;;;;;;;6087853;23;20168;-91
2024/01/25 08:40:13;;;;;;;24.27;4.22;;;;;;;;;;6085882;23;20223;-93
2024/01/25 08:43:19;;;;;;;30.00;4.15;;;;;;;;;;6084682;23;20183;-93
2024/01/25 08:46:24;;;;;;;30.13;3.28;;;;;;;;;;6081699;23;20171;-91
2024/01/25 08:49:29;;;;;;;25.98;4.50;;;;;;;;;;6081660;23;20171;-90
2024/01/25 08:52:37;;;;;;;30.55;4.32;;;;;;;;;;6085799;23;20205;-93
2024/01/25 08:59:02;;;;;;;15.10;3.20;;;;;;;;;;6086883;23;20192;-91
2024/01/25 09:02:10;;;;;;;25.88;4.47;;;;;;;;;;6093253;23;20232;-89
2024/01/25 10:36:01;;;;;;;24.65;3.38;;;;;;;;;;6080543;23;20218;-92
2024/01/25 10:42:27;;;;;;;13.50;2.83;;;;;;;;;;6085689;23;20183;-91
2024/01/25 10:45:33;;;;;;;15.95;3.25;;;;;;;;;;6085916;23;20162;-92
2024/01/25 10:48:39;;;;;;;16.35;2.80;;;;;;;;;;6086435;23;20170;-90
2024/01/25 10:51:45;;;;;;;20.85;3.45;;;;;;;;;;6083831;23;20173;-91
2024/01/25 10:54:51;;;;;;;31.05;3.63;;;;;;;;;;6084175;23;20186;-91
2024/01/25 10:57:57;;;;;;;16.92;3.05;;;;;;;;;;6086890;23;20170;-91
2024/01/25 11:01:03;;;;;;;21.88;3.00;;;;;;;;;;6086861;23;20174;-91
2024/01/25 11:04:14;;;;;;;20.92;2.92;;;;;;;;;;6092314;23;20226;-90
2024/01/25 11:07:21;;;;;;;17.23;3.25;;;;;;;;;;6085550;23;20167;-92
2024/01/25 11:13:47;;;;;;;21.00;3.38;;;;;;;;;;6087528;23;20186;-89
2024/01/25 11:16:53;;;;;;;14.57;3.25;;;;;;;;;;6088011;23;20165;-91
2024/01/25 11:20:01;;;;;;;18.90;3.25;;;;;;;;;;6086453;23;20192;-91
2024/01/25 11:23:11;;;;;;;29.70;3.97;;;;;;;;;;6085127;23;20503;-90
2024/01/25 11:26:19;;;;;;;14.55;2.92;;;;;;;;;;6083697;23;20155;-90
2024/01/25 11:29:27;;;;;;;20.20;3.78;;;;;;;;;;6089709;23;20200;-90
2024/01/25 11:32:33;;;;;;;19.13;2.88;;;;;;;;;;6088397;23;20228;-92
2024/01/25 11:35:41;;;;;;;25.33;5.63;;;;;;;;;;6088297;23;20217;-91
2024/01/25 11:38:48;;;;;;;18.33;3.13;;;;;;;;;;6086983;23;20171;-89
2024/01/25 11:41:54;;;;;;;18.20;2.95;;;;;;;;;;6084435;23;20175;-90
2024/01/25 14:00:57;;;;;;;20.75;3.78;;;;;;;;;;6081745;23;20249;-90
2024/01/25 14:06:55;;;;;;;26.48;3.92;;;;;;;;;;6105075;23;20207;-93
2024/01/25 14:10:08;;;;;;;15.00;3.78;;;;;;;;;;6117963;23;20170;-91
2024/01/25 14:13:15;;;;;;;22.50;3.75;;;;;;;;;;6121360;23;20175;-91
2024/01/25 14:23:26;;;;;;;20.63;4.15;;;;;;;;;;6123992;23;20162;-88
2024/01/25 14:33:15;;;;;;;21.38;3.90;;;;;;;;;;6123467;23;20187;-92
2024/01/25 19:36:11;;;;;;;42.55;12.32;;;;;;;;;;6089803;23;20214;-91
2024/01/25 19:39:21;;;;;;;56.42;13.40;;;;;;;;;;6090121;23;20215;-92
2024/01/25 19:42:27;;;;;;;65.97;15.90;;;;;;;;;;6089876;23;20246;-91
2024/01/25 19:45:33;;;;;;;60.73;16.37;;;;;;;;;;6093653;23;20171;-90
2024/01/25 19:48:44;;;;;;;54.20;14.68;;;;;;;;;;6090533;23;20170;-89
2024/01/25 23:02:33;;;;;;;30.87;7.30;;;;;;;;;;6093494;23;20252;-92
2024/01/25 23:05:39;;;;;;;35.43;8.43;;;;;;;;;;6089335;23;20191;-91
2024/01/25 23:08:45;;;;;;;31.90;7.07;;;;;;;;;;6089348;23;20211;-93
2024/01/25 23:11:50;;;;;;;25.60;7.20;;;;;;;;;;6089114;23;20269;-93
2024/01/25 23:14:56;;;;;;;33.20;6.97;;;;;;;;;;6088779;23;20369;-92
2024/01/25 23:18:04;;;;;;;21.93;6.50;;;;;;;;;;6089454;23;20170;-91
2024/01/25 23:21:09;;;;;;;26.67;6.60;;;;;;;;;;6086308;23;20175;-91
2024/01/25 23:24:14;;;;;;;28.33;6.30;;;;;;;;;;6088995;23;20166;-91
2024/01/25 23:27:20;;;;;;;25.10;5.93;;;;;;;;;;6089432;23;20170;-88
2024/01/25 23:30:26;;;;;;;26.57;6.13;;;;;;;;;;6088623;23;20166;-93
2024/01/25 23:33:34;;;;;;;34.60;6.93;;;;;;;;;;6088571;23;20191;-92
2024/01/25 23:36:40;;;;;;;24.60;6.00;;;;;;;;;;6088379;23;20174;-92
2024/01/25 23:39:47;;;;;;;30.23;6.60;;;;;;;;;;6086133;23;20162;-90
2024/01/25 23:42:52;;;;;;;18.67;6.47;;;;;;;;;;6087279;23;20162;-93
2024/01/25 23:45:58;;;;;;;27.30;6.07;;;;;;;;;;6089531;23;20196;-91
2024/01/25 23:52:25;;;;;;;27.60;7.67;;;;;;;;;;6089127;23;20670;-90
2024/01/25 23:55:30;;;;;;;19.23;6.93;;;;;;;;;;6090645;23;20186;-90
2024/01/25 23:58:36;;;;;;;26.07;7.07;;;;;;;;;;6088413;23;20172;-93
